Time;durP1;ratioP1;P1;durP2;ratioP2;P2;SDS_P1;SDS_P2;PMS_P1;PMS_P2;Temp;Humidity;BMP_temperature;BMP_pressure;BME280_temperature;BME280_humidity;BME280_pressure;Samples;Min_cycle;Max_cycle;Signal;HPM_P1;HPM_P2
2022/01/20 00:02:01;;;;;;;6.10;2.70;;;;;;;2.57;100.00;100289.28;5037098;28;20127;-82
2022/01/20 00:04:50;;;;;;;9.43;2.97;;;;;;;2.57;100.00;100304.94;5055076;28;20051;-83
2022/01/20 00:26:47;;;;;;;3.40;1.17;;;;;;;1.31;100.00;100296.91;4973884;28;20054;-84
2022/01/20 00:29:24;;;;;;;2.30;1.00;;;;;;;1.38;100.00;100299.59;5074634;28;20043;-83
2022/01/20 00:32:10;;;;;;;2.67;1.10;;;;;;;1.45;100.00;100305.72;5038568;28;20036;-84
2022/01/20 00:37:24;;;;;;;;;;;;;;;1.51;100.00;100302.31;5059806;28;20040;-84
2022/01/20 00:39:54;;;;;;;2.23;1.17;;;;;;;1.51;100.00;100295.38;5059064;28;20652;-83
2022/01/20 00:42:27;;;;;;;4.57;1.35;;;;;;;1.49;100.00;100302.28;5041117;28;20040;-84
2022/01/20 00:44:56;;;;;;;8.17;1.77;;;;;;;1.50;100.00;100296.22;5058451;28;20050;-84
2022/01/20 00:47:28;;;;;;;4.23;1.30;;;;;;;1.52;100.00;100306.69;5036912;28;20127;-84
2022/01/20 00:50:01;;;;;;;6.40;1.58;;;;;;;1.48;100.00;100318.78;5076270;28;20044;-83
2022/01/20 00:52:31;;;;;;;3.70;1.83;;;;;;;1.46;100.00;100320.50;5042137;28;20052;-84
2022/01/20 00:54:57;;;;;;;6.60;1.30;;;;;;;1.43;100.00;100320.47;5043883;28;20044;-84
2022/01/20 00:57:26;;;;;;;6.10;1.33;;;;;;;1.37;100.00;100325.59;5043525;28;20404;-84
2022/01/20 01:00:03;;;;;;;3.53;1.63;;;;;;;1.37;100.00;100313.47;5045987;28;20062;-84
2022/01/20 01:02:30;;;;;;;3.47;1.27;;;;;;;1.25;100.00;100325.44;5041059;28;20047;-85
2022/01/20 01:04:56;;;;;;;7.00;1.40;;;;;;;1.30;100.00;100322.03;5043615;28;20046;-83
2022/01/20 01:09:55;;;;;;;4.73;1.40;;;;;;;1.25;100.00;100313.31;5059918;28;20044;-84
2022/01/20 01:12:34;;;;;;;7.57;2.00;;;;;;;1.18;100.00;100311.50;5039703;28;20085;-84
2022/01/20 01:15:02;;;;;;;3.70;1.30;;;;;;;1.17;100.00;100309.72;5042974;28;20051;-83
2022/01/20 01:20:15;;;;;;;5.23;1.50;;;;;;;1.06;100.00;100321.75;5058579;28;20775;-84
2022/01/20 01:22:42;;;;;;;7.37;1.63;;;;;;;1.08;100.00;100322.63;5039680;28;20242;-83
2022/01/20 01:25:09;;;;;;;4.87;1.40;;;;;;;1.13;100.00;100332.25;5052679;28;20044;-84
2022/01/20 01:27:39;;;;;;;6.03;2.03;;;;;;;1.19;100.00;100336.66;5057882;28;20044;-83
2022/01/20 01:30:24;;;;;;;9.67;1.90;;;;;;;1.22;100.00;100333.22;5044030;28;20036;-83
2022/01/20 01:32:54;;;;;;;9.10;2.10;;;;;;;1.24;100.00;100328.91;5059261;28;20044;-84
2022/01/20 01:35:23;;;;;;;10.13;2.37;;;;;;;1.30;100.00;100323.78;5043086;28;20425;-86
2022/01/20 01:40:36;;;;;;;10.93;2.70;;;;;;;1.28;100.00;100317.69;5060131;28;20048;-85
2022/01/20 01:43:08;;;;;;;15.27;3.67;;;;;;;1.35;100.00;100312.56;5036332;28;20133;-83
2022/01/20 01:45:37;;;;;;;6.90;2.53;;;;;;;1.29;100.00;100309.03;5061114;28;20124;-83
2022/01/20 01:48:04;;;;;;;13.57;2.80;;;;;;;1.31;100.00;100289.09;5021033;28;20123;-83
2022/01/20 01:50:32;;;;;;;10.87;3.37;;;;;;;1.27;100.00;100301.19;5054983;28;20489;-84
2022/01/20 01:53:02;;;;;;;6.47;2.80;;;;;;;1.25;100.00;100305.50;5032512;28;20121;-82
2022/01/20 01:55:29;;;;;;;11.77;3.00;;;;;;;1.30;100.00;100314.25;5041566;28;20578;-83
2022/01/20 01:57:56;;;;;;;10.00;3.30;;;;;;;1.32;100.00;100316.84;5040520;28;20481;-83
2022/01/20 02:00:22;;;;;;;7.67;2.67;;;;;;;1.26;100.00;100301.16;5038363;28;20041;-82
2022/01/20 02:02:49;;;;;;;12.13;4.43;;;;;;;1.30;100.00;100283.00;5024303;28;20439;-85
2022/01/20 02:05:17;;;;;;;12.00;3.67;;;;;;;1.23;100.00;100273.38;5042462;28;20466;-82
2022/01/20 02:18:38;;;;;;;6.07;2.03;;;;;;;1.23;100.00;100295.94;5060627;28;20040;-83
2022/01/20 02:21:05;;;;;;;11.83;3.23;;;;;;;1.17;100.00;100282.84;5041468;28;20044;-85
2022/01/20 02:23:32;;;;;;;10.80;2.47;;;;;;;1.17;100.00;100283.72;5057246;28;20051;-83
2022/01/20 02:25:59;;;;;;;8.50;2.93;;;;;;;1.25;100.00;100269.06;5040021;28;20036;-84
2022/01/20 02:28:29;;;;;;;9.93;2.70;;;;;;;1.27;100.00;100266.50;5065245;28;20028;-84
2022/01/20 02:30:56;;;;;;;10.87;3.67;;;;;;;1.24;100.00;100269.06;5064342;28;20070;-85
2022/01/20 02:33:27;;;;;;;8.23;2.50;;;;;;;1.26;100.00;100273.44;5057445;28;20044;-82
2022/01/20 02:35:57;;;;;;;10.27;2.73;;;;;;;1.27;100.00;100263.91;5058371;28;20044;-83
2022/01/20 02:38:37;;;;;;;9.73;2.07;;;;;;;1.28;100.00;100265.66;5040242;28;20036;-83
2022/01/20 02:46:37;;;;;;;11.00;3.33;;;;;;;1.39;100.00;100264.00;5055983;28;20422;-82
2022/01/20 02:49:04;;;;;;;6.23;2.43;;;;;;;1.41;100.00;100267.50;5073482;28;20433;-82
2022/01/20 02:51:31;;;;;;;13.57;2.23;;;;;;;1.48;100.00;100273.66;5052739;28;20042;-81
2022/01/20 02:53:58;;;;;;;6.47;2.23;;;;;;;1.43;100.00;100265.81;5056742;28;20097;-82
2022/01/20 02:56:24;;;;;;;13.67;3.53;;;;;;;1.39;100.00;100266.63;5050848;28;20040;-82
2022/01/20 02:58:51;;;;;;;12.57;3.20;;;;;;;1.54;100.00;100261.56;5051487;28;20093;-83
2022/01/20 03:01:18;;;;;;;8.60;2.60;;;;;;;1.56;100.00;100270.25;5053297;28;20036;-83
2022/01/20 03:03:44;;;;;;;8.90;2.30;;;;;;;1.56;100.00;100275.47;5051300;28;20136;-83
2022/01/20 03:06:12;;;;;;;13.00;2.60;;;;;;;1.48;100.00;100281.47;5038649;28;20084;-82
2022/01/20 03:08:39;;;;;;;9.40;3.03;;;;;;;1.40;100.00;100270.97;5055672;28;20059;-82
2022/01/20 03:11:06;;;;;;;14.87;3.27;;;;;;;1.37;100.00;100273.53;5047512;28;20432;-82
2022/01/20 03:13:33;;;;;;;9.73;3.07;;;;;;;1.31;100.00;100257.84;5050220;28;20090;-82
2022/01/20 03:15:59;;;;;;;10.03;2.93;;;;;;;1.32;100.00;100272.63;5042095;28;20044;-82
2022/01/20 03:18:26;;;;;;;11.10;2.30;;;;;;;1.29;100.00;100285.59;5055418;28;20139;-82
2022/01/20 03:20:53;;;;;;;12.13;2.50;;;;;;;1.17;100.00;100296.72;5055380;28;20044;-83
2022/01/20 03:23:19;;;;;;;5.67;2.57;;;;;;;0.96;100.00;100292.16;5055108;28;20052;-82
2022/01/20 03:25:46;;;;;;;5.70;1.80;;;;;;;0.79;100.00;100291.06;5055854;28;20393;-82
2022/01/20 03:28:12;;;;;;;5.90;1.90;;;;;;;0.57;100.00;100287.28;5054375;28;20044;-82
2022/01/20 03:30:39;;;;;;;11.10;2.43;;;;;;;0.50;100.00;100288.06;5055347;28;20040;-81
2022/01/20 03:33:06;;;;;;;5.47;1.87;;;;;;;0.55;100.00;100276.88;5054415;28;20044;-81
2022/01/20 03:35:33;;;;;;;10.77;2.30;;;;;;;0.35;100.00;100259.28;5055235;28;20036;-81
2022/01/20 03:37:59;;;;;;;5.07;1.60;;;;;;;0.46;100.00;100237.78;5068479;28;20089;-81
2022/01/20 03:40:26;;;;;;;14.50;2.07;;;;;;;0.43;100.00;100240.34;5018019;28;20405;-82
2022/01/20 03:42:52;;;;;;;10.57;1.80;;;;;;;0.45;100.00;100251.63;5033969;28;20094;-82
2022/01/20 03:45:19;;;;;;;4.43;1.60;;;;;;;0.42;100.00;100245.50;5052706;28;20481;-80
2022/01/20 03:47:46;;;;;;;3.80;1.30;;;;;;;0.44;100.00;100210.91;5051191;28;20048;-81
2022/01/20 03:52:58;;;;;;;5.83;1.47;;;;;;;0.45;100.00;100216.97;5053203;28;20074;-81
2022/01/20 03:55:24;;;;;;;3.87;1.83;;;;;;;0.45;100.00;100216.97;5049913;28;20524;-82
2022/01/20 03:57:51;;;;;;;8.23;2.27;;;;;;;0.46;100.00;100235.19;5054300;28;20501;-82
2022/01/20 04:00:18;;;;;;;9.13;1.87;;;;;;;0.45;100.00;100236.03;5056947;28;20040;-82
2022/01/20 04:02:44;;;;;;;2.80;2.10;;;;;;;0.36;100.00;100248.91;5053317;28;20047;-82
2022/01/20 04:05:13;;;;;;;3.20;1.23;;;;;;;0.44;100.00;100239.47;5056475;28;20118;-81
2022/01/20 04:07:41;;;;;;;3.80;1.63;;;;;;;0.49;100.00;100240.41;5059297;28;20254;-81
2022/01/20 04:10:08;;;;;;;4.40;1.37;;;;;;;0.54;100.00;100237.88;5077273;28;20032;-83
2022/01/20 04:12:34;;;;;;;8.17;1.57;;;;;;;0.55;100.00;100224.91;5054825;28;20045;-82
2022/01/20 04:15:07;;;;;;;5.40;1.70;;;;;;;0.53;98.30;100224.00;5075905;28;20052;-82
2022/01/20 04:17:35;;;;;;;5.27;2.17;;;;;;;0.56;97.56;100238.75;5075249;28;20044;-82
2022/01/20 04:20:03;;;;;;;6.90;1.70;;;;;;;0.59;97.42;100245.72;5060075;28;20036;-83
2022/01/20 04:22:30;;;;;;;3.93;1.90;;;;;;;0.57;96.90;100235.31;5043835;28;20047;-81
2022/01/20 04:24:57;;;;;;;10.63;2.40;;;;;;;0.53;95.89;100229.22;5061598;28;20436;-80
2022/01/20 04:27:24;;;;;;;7.50;2.00;;;;;;;0.54;95.90;100254.34;5057215;28;20051;-82
2022/01/20 04:29:50;;;;;;;8.13;1.83;;;;;;;0.61;94.47;100251.84;5076209;28;20039;-82
2022/01/20 04:32:17;;;;;;;7.80;1.73;;;;;;;0.69;95.61;100271.88;5056135;28;20047;-82
2022/01/20 04:34:44;;;;;;;8.87;2.30;;;;;;;0.66;95.18;100261.41;5041593;28;20059;-82
2022/01/20 04:37:12;;;;;;;5.13;1.80;;;;;;;0.67;94.86;100259.69;5041119;28;20048;-83
2022/01/20 04:39:45;;;;;;;4.90;2.00;;;;;;;0.65;91.65;100253.59;5040886;28;20036;-82
2022/01/20 04:42:12;;;;;;;4.53;1.47;;;;;;;0.66;91.62;100245.81;5073345;28;20046;-82
2022/01/20 04:44:46;;;;;;;5.83;2.13;;;;;;;0.67;89.99;100259.69;5077323;28;20040;-83
2022/01/20 04:58:01;;;;;;;4.80;1.87;;;;;;;0.68;91.41;100238.94;5056352;28;20056;-80
2022/01/20 05:00:28;;;;;;;8.47;1.90;;;;;;;0.65;92.00;100238.88;5072208;28;20036;-79
2022/01/20 05:02:55;;;;;;;9.33;2.20;;;;;;;0.68;93.34;100248.47;5037763;28;20236;-81
2022/01/20 05:05:26;;;;;;;6.67;2.90;;;;;;;0.70;92.61;100226.81;5072041;28;20066;-81
2022/01/20 05:07:53;;;;;;;5.17;1.97;;;;;;;0.66;93.62;100221.56;5040444;28;20169;-81
2022/01/20 05:10:19;;;;;;;6.80;1.70;;;;;;;0.69;95.21;100216.41;5053636;28;20033;-80
2022/01/20 05:15:20;;;;;;;7.27;2.17;;;;;;;0.64;94.06;100211.16;5074948;28;20063;-80
2022/01/20 05:17:47;;;;;;;7.20;1.67;;;;;;;0.67;94.77;100216.38;5066061;28;20036;-80
2022/01/20 05:20:14;;;;;;;6.77;1.80;;;;;;;0.63;95.52;100208.53;5074695;28;20040;-80
2022/01/20 05:22:44;;;;;;;9.97;2.23;;;;;;;0.63;95.49;100221.53;5039859;28;20036;-80
2022/01/20 05:25:10;;;;;;;4.83;1.67;;;;;;;0.66;92.83;100200.75;5057289;28;20044;-80
2022/01/20 05:27:37;;;;;;;8.40;2.97;;;;;;;0.67;91.51;100220.69;5057511;28;20055;-80
2022/01/20 05:30:04;;;;;;;7.17;1.90;;;;;;;0.64;88.97;100250.13;5075420;28;20067;-80
2022/01/20 05:32:31;;;;;;;9.57;1.70;;;;;;;0.62;92.99;100279.56;5056586;28;20036;-81
2022/01/20 05:34:58;;;;;;;3.30;1.20;;;;;;;0.41;98.56;100264.53;5057914;28;20106;-81
2022/01/20 05:37:24;;;;;;;3.17;1.50;;;;;;;0.28;100.00;100282.56;5056315;28;20098;-80
2022/01/20 05:39:51;;;;;;;6.70;1.23;;;;;;;0.07;100.00;100289.13;5057778;28;20047;-80
2022/01/20 05:42:18;;;;;;;6.27;1.90;;;;;;;-0.13;100.00;100292.28;5070810;28;20075;-80
2022/01/20 05:44:50;;;;;;;6.27;1.70;;;;;;;-0.12;100.00;100293.16;5073237;28;20525;-81
2022/01/20 05:47:25;;;;;;;5.57;1.90;;;;;;;-0.36;100.00;100298.81;5035550;28;20045;-80
2022/01/20 05:49:52;;;;;;;6.13;1.30;;;;;;;-0.42;100.00;100306.47;5055665;28;20040;-80
2022/01/20 05:52:19;;;;;;;3.13;1.67;;;;;;;-0.58;100.00;100326.09;5054692;28;20044;-80
2022/01/20 05:54:46;;;;;;;3.90;1.20;;;;;;;-0.44;100.00;100345.38;5071904;28;20047;-80
2022/01/20 05:57:12;;;;;;;5.13;1.30;;;;;;;-0.72;100.00;100354.34;5068985;28;20051;-81
2022/01/20 05:59:39;;;;;;;2.60;0.87;;;;;;;-0.83;100.00;100355.88;5036376;28;20496;-80
2022/01/20 06:02:25;;;;;;;3.10;1.10;;;;;;;-1.00;100.00;100375.38;5050741;28;20071;-81
2022/01/20 06:04:52;;;;;;;2.53;1.37;;;;;;;-1.15;100.00;100384.56;5070792;28;20055;-81
2022/01/20 06:07:20;;;;;;;4.00;1.20;;;;;;;-1.04;100.00;100378.75;5035480;28;20519;-80
2022/01/20 06:09:47;;;;;;;3.50;1.13;;;;;;;-1.16;100.00;100388.00;5043078;28;20040;-80
2022/01/20 06:12:13;;;;;;;3.03;1.30;;;;;;;-1.09;100.00;100414.94;5067960;28;20048;-82
2022/01/20 06:14:40;;;;;;;3.83;1.10;;;;;;;-1.10;100.00;100409.72;5069683;28;20055;-81
2022/01/20 06:17:07;;;;;;;3.57;1.20;;;;;;;-1.19;100.00;100406.06;5050749;28;20056;-80
2022/01/20 06:19:34;;;;;;;4.57;1.70;;;;;;;-1.12;100.00;100409.69;5052900;28;20036;-82
2022/01/20 06:22:00;;;;;;;4.53;0.90;;;;;;;-1.15;100.00;100401.84;5052073;28;20366;-82
2022/01/20 06:24:27;;;;;;;2.13;0.80;;;;;;;-1.20;100.00;100409.50;5072697;28;20055;-82
2022/01/20 06:26:54;;;;;;;2.17;1.00;;;;;;;-1.37;100.00;100397.88;5050460;28;20057;-82
2022/01/20 06:29:21;;;;;;;3.33;0.80;;;;;;;-1.26;100.00;100403.28;5046288;28;20117;-82
2022/01/20 06:31:48;;;;;;;3.83;0.90;;;;;;;-1.29;100.00;100401.53;5056250;28;20432;-85
2022/01/20 06:34:14;;;;;;;1.23;0.90;;;;;;;-1.25;100.00;100411.13;5043100;28;20078;-83
2022/01/20 06:36:41;;;;;;;2.30;0.80;;;;;;;-1.46;100.00;100424.44;5056978;28;20087;-83
2022/01/20 06:39:08;;;;;;;3.40;1.30;;;;;;;-1.35;100.00;100434.19;5060248;28;20048;-85
2022/01/20 06:41:37;;;;;;;4.63;0.90;;;;;;;-1.32;100.00;100419.59;5039242;28;20040;-82
2022/01/20 06:44:05;;;;;;;4.30;1.47;;;;;;;-1.30;100.00;100446.41;5062958;28;20044;-83
2022/01/20 06:46:32;;;;;;;5.13;1.00;;;;;;;-1.34;100.00;100442.03;5038405;28;20112;-82
2022/01/20 06:49:02;;;;;;;2.90;1.20;;;;;;;-1.50;100.00;100450.25;5040179;28;20052;-82
2022/01/20 06:51:29;;;;;;;4.47;1.03;;;;;;;-1.45;100.00;100459.00;5039197;28;21375;-82
2022/01/20 06:53:59;;;;;;;5.87;1.53;;;;;;;-1.61;100.00;100455.16;5058117;28;20055;-83
2022/01/20 06:56:27;;;;;;;4.77;1.47;;;;;;;-1.49;100.00;100464.97;5037961;28;20044;-82
2022/01/20 06:59:06;;;;;;;2.90;1.00;;;;;;;-1.45;100.00;100464.19;5038525;28;20052;-81
2022/01/20 07:01:33;;;;;;;3.70;1.03;;;;;;;-1.40;100.00;100470.38;5056584;28;20036;-82
2022/01/20 07:04:00;;;;;;;4.80;1.10;;;;;;;-1.46;99.49;100475.38;5057146;28;20050;-83
2022/01/20 07:06:27;;;;;;;6.80;1.40;;;;;;;-1.52;98.48;100470.91;5055895;28;20496;-82
2022/01/20 07:08:57;;;;;;;4.00;1.67;;;;;;;-1.45;96.54;100466.78;5038767;28;20045;-83
2022/01/20 07:11:24;;;;;;;3.23;0.80;;;;;;;-1.48;97.43;100487.44;5055863;28;20090;-83
2022/01/20 07:13:50;;;;;;;5.67;1.13;;;;;;;-1.50;96.74;100484.81;5028500;28;20552;-83
2022/01/20 07:16:17;;;;;;;4.97;2.07;;;;;;;-1.39;94.07;100479.88;5047536;28;20048;-82
2022/01/20 07:18:43;;;;;;;3.43;1.47;;;;;;;-1.43;93.74;100484.13;5030649;28;20044;-82
2022/01/20 07:21:10;;;;;;;5.07;1.30;;;;;;;-1.38;94.52;100501.50;5033369;28;20086;-83
2022/01/20 07:23:38;;;;;;;5.17;2.03;;;;;;;-1.41;94.05;100491.94;5037327;28;20519;-81
2022/01/20 07:26:05;;;;;;;3.73;1.13;;;;;;;-1.43;92.69;100503.94;5046185;28;20052;-80
2022/01/20 07:28:34;;;;;;;5.83;2.10;;;;;;;-1.44;92.31;100507.38;5041178;28;20036;-82
2022/01/20 07:31:01;;;;;;;9.00;2.53;;;;;;;-1.35;93.20;100499.84;5044116;28;20570;-80
2022/01/20 07:33:28;;;;;;;6.37;2.33;;;;;;;-1.35;92.64;100515.38;5058985;28;20130;-83
2022/01/20 07:35:54;;;;;;;6.63;3.40;;;;;;;-1.37;92.33;100518.78;5041056;28;20040;-81
2022/01/20 07:38:21;;;;;;;5.73;2.63;;;;;;;-1.36;91.58;100521.41;5059542;28;20054;-83
2022/01/20 07:40:48;;;;;;;4.87;1.70;;;;;;;-1.35;91.71;100520.56;5061031;28;20032;-81
2022/01/20 07:43:15;;;;;;;3.03;1.17;;;;;;;-1.38;89.19;100517.91;5057123;28;20040;-81
2022/01/20 07:45:41;;;;;;;5.30;2.20;;;;;;;-1.40;90.48;100527.38;5064550;28;20497;-83
2022/01/20 07:48:08;;;;;;;5.67;1.33;;;;;;;-1.41;89.48;100536.00;5053847;28;20520;-82
2022/01/20 07:50:35;;;;;;;4.53;1.10;;;;;;;-1.30;87.67;100544.03;5042832;28;20036;-81
2022/01/20 07:53:02;;;;;;;5.63;2.27;;;;;;;-1.26;84.76;100536.38;5051111;28;20440;-82
2022/01/20 07:55:29;;;;;;;5.30;1.60;;;;;;;-1.18;85.61;100528.78;5060699;28;20051;-82
2022/01/20 07:57:56;;;;;;;1.97;1.03;;;;;;;-1.15;86.10;100524.56;5077020;28;20097;-81
2022/01/20 08:00:23;;;;;;;2.30;1.27;;;;;;;-1.23;84.92;100532.97;5060033;28;20382;-83
2022/01/20 08:02:50;;;;;;;4.50;1.20;;;;;;;-1.15;84.48;100532.34;5042054;28;20093;-82
2022/01/20 08:05:17;;;;;;;2.13;1.37;;;;;;;-1.07;84.74;100534.25;5060499;28;20897;-81
2022/01/20 08:07:44;;;;;;;1.83;0.90;;;;;;;-1.06;83.75;100546.34;5038733;28;20452;-83
2022/01/20 08:10:13;;;;;;;6.33;2.23;;;;;;;-1.04;84.62;100545.53;5039025;28;20032;-82
2022/01/20 08:12:40;;;;;;;4.67;1.57;;;;;;;-0.98;84.28;100557.78;5058122;28;20039;-83
2022/01/20 08:15:12;;;;;;;3.40;1.47;;;;;;;-1.04;84.15;100566.28;5041666;28;20066;-80
2022/01/20 08:17:40;;;;;;;3.23;1.30;;;;;;;-1.04;84.49;100578.38;5043493;28;20507;-81
2022/01/20 08:20:09;;;;;;;5.87;1.30;;;;;;;-1.10;83.45;100576.50;5059953;28;20480;-82
2022/01/20 08:22:36;;;;;;;2.63;1.20;;;;;;;-0.92;84.41;100565.72;5041403;28;20044;-81
2022/01/20 08:25:15;;;;;;;4.50;1.77;;;;;;;-0.94;84.01;100563.06;5073099;28;20048;-81
2022/01/20 08:27:42;;;;;;;5.93;1.77;;;;;;;-0.81;84.84;100564.25;5051692;28;20044;-81
2022/01/20 08:30:15;;;;;;;4.27;1.70;;;;;;;-0.87;84.04;100564.09;5041067;28;20043;-80
2022/01/20 08:32:42;;;;;;;4.70;1.77;;;;;;;-0.80;84.75;100567.72;5050816;28;20036;-81
2022/01/20 08:35:09;;;;;;;5.17;1.53;;;;;;;-0.82;85.44;100570.28;5051562;28;20520;-80
2022/01/20 08:37:40;;;;;;;3.87;1.73;;;;;;;-0.74;86.93;100568.75;5057143;28;20044;-79
2022/01/20 08:40:12;;;;;;;8.40;1.60;;;;;;;-0.69;86.40;100563.66;5052735;28;20040;-79
2022/01/20 08:42:44;;;;;;;5.63;1.77;;;;;;;-0.70;85.46;100555.00;5070487;28;20044;-80
2022/01/20 08:45:13;;;;;;;5.27;1.73;;;;;;;-0.59;86.68;100570.81;5124751;22;20041;-81
2022/01/20 08:47:40;;;;;;;7.03;2.13;;;;;;;-0.57;86.63;100570.03;5035225;28;20040;-82
2022/01/20 08:50:07;;;;;;;6.13;1.83;;;;;;;-0.41;86.31;100573.84;5049472;28;20143;-80
2022/01/20 08:52:34;;;;;;;5.93;1.70;;;;;;;-0.33;86.37;100574.91;5053377;28;20451;-80
2022/01/20 08:55:01;;;;;;;6.63;1.80;;;;;;;-0.27;85.07;100571.53;5059925;28;20044;-82
2022/01/20 08:57:28;;;;;;;6.40;2.27;;;;;;;-0.22;84.16;100577.72;5054496;28;20033;-81
2022/01/20 08:59:56;;;;;;;8.07;2.10;;;;;;;-0.03;84.65;100564.28;5056287;28;20524;-81
2022/01/20 09:02:22;;;;;;;13.20;3.17;;;;;;;0.11;86.08;100564.56;5044893;28;20044;-81
2022/01/20 09:04:50;;;;;;;8.60;2.47;;;;;;;0.22;85.49;100559.56;5039213;28;20048;-82
2022/01/20 09:07:17;;;;;;;8.80;3.20;;;;;;;0.33;85.12;100560.66;5037637;28;20044;-82
2022/01/20 09:09:46;;;;;;;6.80;2.17;;;;;;;0.30;83.65;100564.91;5040570;28;20048;-82
2022/01/20 09:15:27;;;;;;;8.87;2.87;;;;;;;0.40;84.86;100566.84;5041044;28;20543;-82
2022/01/20 09:17:55;;;;;;;12.23;3.93;;;;;;;0.37;84.58;100565.06;5060320;28;20044;-82
2022/01/20 09:20:22;;;;;;;5.83;2.00;;;;;;;0.35;83.04;100568.50;5058634;28;20109;-82
2022/01/20 09:22:51;;;;;;;7.60;2.00;;;;;;;0.32;83.18;100576.22;5041273;28;20130;-81
2022/01/20 09:25:18;;;;;;;8.10;2.63;;;;;;;0.29;83.88;100571.84;5059655;28;20035;-81
2022/01/20 09:27:45;;;;;;;12.67;3.83;;;;;;;0.32;82.44;100558.91;5041213;28;20055;-81
2022/01/20 09:30:18;;;;;;;6.93;3.03;;;;;;;0.42;82.89;100579.03;5059506;28;20054;-82
2022/01/20 09:32:58;;;;;;;14.30;2.73;;;;;;;0.56;83.23;100579.28;5073929;28;20043;-82
2022/01/20 09:35:31;;;;;;;6.87;2.47;;;;;;;0.63;81.37;100577.69;5060259;28;20078;-82
2022/01/20 09:38:00;;;;;;;7.60;4.07;;;;;;;0.80;82.05;100571.06;5041164;28;20044;-81
2022/01/20 09:40:29;;;;;;;10.03;3.17;;;;;;;0.77;79.00;100587.50;5054547;28;20055;-82
2022/01/20 09:42:57;;;;;;;10.00;2.70;;;;;;;0.83;80.35;100590.16;5055200;28;20048;-81
2022/01/20 09:45:23;;;;;;;8.00;2.87;;;;;;;0.89;78.90;100584.22;5038110;28;20047;-81
2022/01/20 09:47:50;;;;;;;9.60;2.53;;;;;;;0.91;78.06;100589.44;5070779;28;20074;-82
2022/01/20 09:50:19;;;;;;;8.10;2.80;;;;;;;0.91;79.12;100594.63;5053004;28;20044;-82
2022/01/20 09:52:47;;;;;;;9.53;3.33;;;;;;;0.88;79.23;100594.59;5051054;28;20036;-81
2022/01/20 09:55:15;;;;;;;10.00;3.40;;;;;;;0.94;78.99;100597.31;5020007;28;20041;-82
2022/01/20 09:57:41;;;;;;;7.57;2.43;;;;;;;0.77;78.34;100592.69;5017373;28;20044;-82
2022/01/20 10:00:11;;;;;;;9.17;2.20;;;;;;;0.88;79.59;100587.66;5036548;28;20528;-81
2022/01/20 10:02:51;;;;;;;5.87;2.53;;;;;;;0.89;77.54;100592.00;5040273;28;20451;-83
2022/01/20 10:05:51;;;;;;;5.63;2.43;;;;;;;0.89;77.32;100597.22;5054845;28;20103;-82
2022/01/20 10:08:26;;;;;;;7.00;2.60;;;;;;;0.92;77.73;100596.38;5037662;28;20047;-82
2022/01/20 10:11:10;;;;;;;9.37;2.57;;;;;;;1.02;79.10;100598.31;5038243;28;20497;-82
2022/01/20 10:13:38;;;;;;;7.97;2.88;;;;;;;1.17;76.99;100592.47;5044564;28;20488;-82
2022/01/20 10:16:08;;;;;;;7.83;2.20;;;;;;;1.25;76.72;100596.94;5073829;28;20089;-82
2022/01/20 10:18:57;;;;;;;7.90;2.30;;;;;;;1.30;75.52;100590.09;5035772;28;20387;-82
2022/01/20 10:21:32;;;;;;;9.33;2.30;;;;;;;1.35;74.73;100595.41;5036619;28;20082;-82
2022/01/20 10:24:07;;;;;;;6.50;2.53;;;;;;;1.42;75.68;100612.84;5036627;28;20485;-81
2022/01/20 10:26:34;;;;;;;6.47;2.83;;;;;;;1.41;74.79;100598.06;5018945;28;20494;-82
2022/01/20 10:29:15;;;;;;;8.37;2.20;;;;;;;1.50;75.51;100606.03;5037232;28;20055;-81
2022/01/20 10:31:56;;;;;;;7.07;2.60;;;;;;;1.75;72.75;100606.38;5032877;28;20044;-80
2022/01/20 10:34:31;;;;;;;10.07;3.43;;;;;;;1.84;71.61;100606.50;5057213;28;20048;-80
2022/01/20 10:37:04;;;;;;;8.23;2.40;;;;;;;1.99;71.22;100593.69;5074198;28;20032;-81
2022/01/20 10:39:40;;;;;;;9.60;2.87;;;;;;;2.02;71.00;100617.22;5074442;28;20050;-82
2022/01/20 10:42:28;;;;;;;10.60;2.63;;;;;;;1.99;70.53;100619.75;5038822;28;20050;-81
2022/01/20 10:44:56;;;;;;;5.60;2.10;;;;;;;1.95;70.14;100634.50;5054762;28;20043;-82
2022/01/20 10:47:29;;;;;;;10.63;3.27;;;;;;;1.87;68.48;100617.00;5057514;28;21840;-81
2022/01/20 10:50:07;;;;;;;7.27;2.20;;;;;;;2.02;70.93;100629.34;5057815;28;20032;-81
2022/01/20 10:52:36;;;;;;;8.67;3.20;;;;;;;2.07;68.20;100646.78;5037796;28;20074;-80
2022/01/20 10:55:06;;;;;;;6.57;2.30;;;;;;;1.85;67.73;100634.31;5056349;28;20496;-81
2022/01/20 10:57:34;;;;;;;12.40;2.53;;;;;;;2.06;70.60;100641.56;5054957;28;20054;-81
2022/01/20 11:00:06;;;;;;;11.77;2.30;;;;;;;2.12;67.83;100628.63;5051058;28;20432;-80
2022/01/20 11:02:33;;;;;;;13.63;3.23;;;;;;;1.88;66.72;100630.03;5055724;28;20048;-81
2022/01/20 11:05:00;;;;;;;9.93;2.50;;;;;;;1.96;67.88;100643.19;5056514;28;20051;-81
2022/01/20 11:07:28;;;;;;;7.97;2.10;;;;;;;1.88;66.74;100634.38;5037123;28;20044;-81
2022/01/20 11:10:00;;;;;;;9.47;3.00;;;;;;;2.08;68.45;100645.94;5034654;28;20048;-81
2022/01/20 11:12:27;;;;;;;5.90;1.97;;;;;;;2.20;67.82;100653.94;5047927;28;20047;-81
2022/01/20 11:14:55;;;;;;;11.83;2.60;;;;;;;2.22;67.38;100643.53;5054983;28;20055;-81
2022/01/20 11:17:27;;;;;;;8.07;2.80;;;;;;;2.31;67.06;100647.97;5036783;28;20044;-81
2022/01/20 11:19:56;;;;;;;14.13;3.93;;;;;;;2.33;68.85;100636.72;5039431;28;20044;-82
2022/01/20 11:22:25;;;;;;;9.53;3.87;;;;;;;2.37;66.71;100643.72;5037152;28;20045;-81
2022/01/20 11:25:00;;;;;;;8.07;3.00;;;;;;;2.46;67.61;100648.19;5062800;28;20094;-82
2022/01/20 11:27:39;;;;;;;7.57;2.63;;;;;;;2.37;68.26;100648.94;5052061;28;20044;-82
2022/01/20 11:30:21;;;;;;;12.23;3.53;;;;;;;2.43;68.74;100648.13;5040064;28;20139;-81
2022/01/20 11:32:59;;;;;;;13.77;2.87;;;;;;;2.57;68.26;100645.69;5053234;28;20047;-82
2022/01/20 11:35:47;;;;;;;8.57;2.27;;;;;;;2.70;66.47;100648.47;5040555;28;20512;-81
2022/01/20 11:38:36;;;;;;;10.20;3.13;;;;;;;2.85;65.72;100642.53;5040679;28;20059;-83
2022/01/20 11:41:03;;;;;;;6.23;2.67;;;;;;;2.75;65.54;100631.13;5054825;28;20040;-81
2022/01/20 11:43:50;;;;;;;7.90;2.73;;;;;;;3.00;66.05;100637.47;5040444;28;20044;-81
2022/01/20 11:46:22;;;;;;;6.97;2.60;;;;;;;2.92;65.44;100639.13;5054809;28;20138;-81
2022/01/20 11:48:58;;;;;;;9.40;2.60;;;;;;;3.02;63.87;100642.69;5058521;28;20047;-81
2022/01/20 11:51:27;;;;;;;9.00;2.60;;;;;;;3.04;63.29;100654.03;5055851;28;20040;-81
2022/01/20 11:54:31;;;;;;;6.53;1.90;;;;;;;2.59;62.58;100647.44;5060495;28;20048;-81
2022/01/20 11:57:16;;;;;;;8.00;2.00;;;;;;;2.73;64.59;100656.31;5055846;28;20047;-81
2022/01/20 11:59:43;;;;;;;;;;;;;;;2.67;65.38;100645.81;5042685;28;20408;-82
2022/01/20 12:02:23;;;;;;;10.87;2.33;;;;;;;2.65;63.26;100655.34;5056104;28;19977;-81
2022/01/20 12:04:51;;;;;;;6.20;2.50;;;;;;;2.63;66.22;100641.44;5045119;28;20044;-81
2022/01/20 12:07:26;;;;;;;5.90;2.00;;;;;;;2.72;63.92;100648.47;5052817;28;20052;-81
2022/01/20 12:10:11;;;;;;;12.10;2.17;;;;;;;2.80;65.30;100652.94;5043385;28;20456;-81
2022/01/20 12:12:39;;;;;;;5.67;2.23;;;;;;;2.58;65.48;100616.16;5056079;28;20055;-82
2022/01/20 12:15:15;;;;;;;8.43;2.50;;;;;;;2.57;67.08;100643.09;5047185;28;20044;-81
2022/01/20 12:17:55;;;;;;;8.80;2.30;;;;;;;2.70;66.14;100635.44;5052952;28;20052;-82
2022/01/20 12:20:23;;;;;;;11.40;3.27;;;;;;;2.55;65.73;100624.81;5036485;28;20056;-82
2022/01/20 12:22:53;;;;;;;9.50;2.13;;;;;;;2.70;66.40;100640.66;5067195;28;20044;-81
2022/01/20 12:25:27;;;;;;;10.90;2.87;;;;;;;2.69;66.17;100651.94;5034419;28;20047;-82
2022/01/20 12:28:08;;;;;;;8.77;2.35;;;;;;;2.79;66.51;100643.34;5034360;28;20048;-81
2022/01/20 12:30:39;;;;;;;10.83;2.60;;;;;;;2.84;66.26;100664.25;5052293;28;20044;-81
2022/01/20 12:33:12;;;;;;;4.57;1.97;;;;;;;2.65;66.75;100654.47;5056181;28;20101;-83
2022/01/20 12:35:43;;;;;;;8.67;3.17;;;;;;;2.81;67.37;100664.22;5075587;28;20039;-81
2022/01/20 12:38:28;;;;;;;9.83;2.87;;;;;;;2.77;67.76;100660.69;5075981;28;20043;-81
2022/01/20 12:41:06;;;;;;;6.60;2.60;;;;;;;2.51;65.81;100676.03;5076606;28;20161;-81
2022/01/20 12:43:47;;;;;;;9.20;2.67;;;;;;;2.39;67.87;100668.09;5056731;28;20439;-81
2022/01/20 12:46:16;;;;;;;9.73;2.70;;;;;;;2.32;68.39;100657.56;5022179;28;20083;-81